sensor_id;sensor_type;location;lat;lon;timestamp;P1;durP1;ratioP1;P2;durP2;ratioP2
65599;SDS011;52272;-29.642;-50.764;2022-08-19T00:01:00;10.70;;;6.43;;
65599;SDS011;52272;-29.642;-50.764;2022-08-19T00:05:59;12.02;;;7.22;;
65599;SDS011;52272;-29.642;-50.764;2022-08-19T00:08:30;11.32;;;7.65;;
65599;SDS011;52272;-29.642;-50.764;2022-08-19T00:11:00;13.23;;;7.18;;
65599;SDS011;52272;-29.642;-50.764;2022-08-19T00:13:30;11.57;;;7.30;;
65599;SDS011;52272;-29.642;-50.764;2022-08-19T00:16:03;8.98;;;6.30;;
65599;SDS011;52272;-29.642;-50.764;2022-08-19T00:18:34;10.57;;;6.05;;
65599;SDS011;52272;-29.642;-50.764;2022-08-19T00:21:05;10.25;;;6.53;;
65599;SDS011;52272;-29.642;-50.764;2022-08-19T00:23:37;9.82;;;5.80;;
65599;SDS011;52272;-29.642;-50.764;2022-08-19T00:26:08;8.85;;;5.75;;
65599;SDS011;52272;-29.642;-50.764;2022-08-19T00:28:41;9.27;;;5.50;;
65599;SDS011;52272;-29.642;-50.764;2022-08-19T00:33:41;8.38;;;5.03;;
65599;SDS011;52272;-29.642;-50.764;2022-08-19T00:36:12;8.57;;;4.93;;
65599;SDS011;52272;-29.642;-50.764;2022-08-19T00:38:42;10.18;;;4.80;;
65599;SDS011;52272;-29.642;-50.764;2022-08-19T00:41:13;8.70;;;5.45;;
65599;SDS011;52272;-29.642;-50.764;2022-08-19T00:44:06;9.50;;;4.63;;
65599;SDS011;52272;-29.642;-50.764;2022-08-19T00:46:40;6.95;;;4.72;;
65599;SDS011;52272;-29.642;-50.764;2022-08-19T00:49:34;11.75;;;5.10;;
65599;SDS011;52272;-29.642;-50.764;2022-08-19T00:52:14;8.30;;;4.68;;
65599;SDS011;52272;-29.642;-50.764;2022-08-19T00:54:47;8.68;;;5.70;;
65599;SDS011;52272;-29.642;-50.764;2022-08-19T00:57:22;9.73;;;5.07;;
65599;SDS011;52272;-29.642;-50.764;2022-08-19T00:59:59;8.05;;;5.20;;
65599;SDS011;52272;-29.642;-50.764;2022-08-19T01:02:31;10.82;;;5.43;;
65599;SDS011;52272;-29.642;-50.764;2022-08-19T01:05:04;9.27;;;5.55;;
65599;SDS011;52272;-29.642;-50.764;2022-08-19T01:07:38;12.05;;;5.15;;
65599;SDS011;52272;-29.642;-50.764;2022-08-19T01:10:11;8.13;;;4.40;;
65599;SDS011;52272;-29.642;-50.764;2022-08-19T01:12:44;10.57;;;4.30;;
65599;SDS011;52272;-29.642;-50.764;2022-08-19T01:15:17;6.05;;;4.15;;
65599;SDS011;52272;-29.642;-50.764;2022-08-19T01:17:52;7.38;;;4.40;;
65599;SDS011;52272;-29.642;-50.764;2022-08-19T01:20:23;10.02;;;4.32;;
65599;SDS011;52272;-29.642;-50.764;2022-08-19T01:22:56;8.20;;;4.53;;
65599;SDS011;52272;-29.642;-50.764;2022-08-19T01:25:29;9.98;;;5.25;;
65599;SDS011;52272;-29.642;-50.764;2022-08-19T01:28:06;8.75;;;4.55;;
65599;SDS011;52272;-29.642;-50.764;2022-08-19T01:30:37;8.88;;;4.53;;
65599;SDS011;52272;-29.642;-50.764;2022-08-19T01:33:18;6.50;;;4.40;;
65599;SDS011;52272;-29.642;-50.764;2022-08-19T01:35:48;7.20;;;4.20;;
65599;SDS011;52272;-29.642;-50.764;2022-08-19T01:38:22;7.18;;;3.75;;
65599;SDS011;52272;-29.642;-50.764;2022-08-19T01:40:55;6.90;;;3.95;;
65599;SDS011;52272;-29.642;-50.764;2022-08-19T01:43:25;8.77;;;3.55;;
65599;SDS011;52272;-29.642;-50.764;2022-08-19T01:45:56;7.38;;;3.67;;
65599;SDS011;52272;-29.642;-50.764;2022-08-19T01:48:26;6.85;;;3.78;;
65599;SDS011;52272;-29.642;-50.764;2022-08-19T01:50:59;7.90;;;3.42;;
65599;SDS011;52272;-29.642;-50.764;2022-08-19T01:53:29;7.10;;;3.83;;
65599;SDS011;52272;-29.642;-50.764;2022-08-19T01:56:01;5.93;;;3.13;;
65599;SDS011;52272;-29.642;-50.764;2022-08-19T01:58:34;5.47;;;2.55;;
65599;SDS011;52272;-29.642;-50.764;2022-08-19T02:01:10;3.75;;;2.60;;
65599;SDS011;52272;-29.642;-50.764;2022-08-19T02:03:40;5.88;;;3.00;;
65599;SDS011;52272;-29.642;-50.764;2022-08-19T02:06:11;5.32;;;2.85;;
65599;SDS011;52272;-29.642;-50.764;2022-08-19T02:08:41;7.32;;;2.90;;
65599;SDS011;52272;-29.642;-50.764;2022-08-19T02:11:24;3.30;;;2.45;;
65599;SDS011;52272;-29.642;-50.764;2022-08-19T02:14:04;3.13;;;2.22;;
65599;SDS011;52272;-29.642;-50.764;2022-08-19T02:16:37;4.32;;;2.50;;
65599;SDS011;52272;-29.642;-50.764;2022-08-19T02:19:07;2.65;;;2.00;;
65599;SDS011;52272;-29.642;-50.764;2022-08-19T02:21:37;3.05;;;2.10;;
65599;SDS011;52272;-29.642;-50.764;2022-08-19T02:24:07;3.92;;;2.15;;
65599;SDS011;52272;-29.642;-50.764;2022-08-19T02:26:38;4.30;;;2.33;;
65599;SDS011;52272;-29.642;-50.764;2022-08-19T02:29:09;3.47;;;2.75;;
65599;SDS011;52272;-29.642;-50.764;2022-08-19T02:31:40;2.72;;;2.00;;
65599;SDS011;52272;-29.642;-50.764;2022-08-19T02:34:10;3.10;;;1.95;;
65599;SDS011;52272;-29.642;-50.764;2022-08-19T02:36:41;4.05;;;1.90;;
65599;SDS011;52272;-29.642;-50.764;2022-08-19T02:39:19;2.83;;;2.15;;
65599;SDS011;52272;-29.642;-50.764;2022-08-19T02:41:50;4.35;;;2.17;;
65599;SDS011;52272;-29.642;-50.764;2022-08-19T02:44:21;4.13;;;1.75;;
65599;SDS011;52272;-29.642;-50.764;2022-08-19T02:49:28;4.88;;;2.13;;
65599;SDS011;52272;-29.642;-50.764;2022-08-19T02:52:02;4.60;;;2.17;;
65599;SDS011;52272;-29.642;-50.764;2022-08-19T02:54:33;4.38;;;1.70;;
65599;SDS011;52272;-29.642;-50.764;2022-08-19T02:57:04;4.57;;;2.00;;
65599;SDS011;52272;-29.642;-50.764;2022-08-19T02:59:35;3.10;;;1.67;;
65599;SDS011;52272;-29.642;-50.764;2022-08-19T03:04:36;3.13;;;1.45;;
65599;SDS011;52272;-29.642;-50.764;2022-08-19T03:07:07;2.72;;;1.48;;
65599;SDS011;52272;-29.642;-50.764;2022-08-19T03:09:38;2.75;;;1.80;;
65599;SDS011;52272;-29.642;-50.764;2022-08-19T03:12:09;2.38;;;1.60;;
65599;SDS011;52272;-29.642;-50.764;2022-08-19T03:14:40;3.75;;;1.48;;
65599;SDS011;52272;-29.642;-50.764;2022-08-19T03:17:11;3.47;;;1.65;;
65599;SDS011;52272;-29.642;-50.764;2022-08-19T03:19:42;3.13;;;1.48;;
65599;SDS011;52272;-29.642;-50.764;2022-08-19T03:22:13;4.55;;;1.63;;
65599;SDS011;52272;-29.642;-50.764;2022-08-19T03:24:43;3.13;;;1.23;;
65599;SDS011;52272;-29.642;-50.764;2022-08-19T03:27:14;1.67;;;1.40;;
65599;SDS011;52272;-29.642;-50.764;2022-08-19T03:29:46;2.78;;;1.60;;
65599;SDS011;52272;-29.642;-50.764;2022-08-19T03:32:19;2.17;;;1.42;;
65599;SDS011;52272;-29.642;-50.764;2022-08-19T03:35:00;2.20;;;1.38;;
65599;SDS011;52272;-29.642;-50.764;2022-08-19T03:37:32;1.55;;;1.25;;
65599;SDS011;52272;-29.642;-50.764;2022-08-19T03:40:03;2.72;;;1.42;;
65599;SDS011;52272;-29.642;-50.764;2022-08-19T03:42:40;2.17;;;1.50;;
65599;SDS011;52272;-29.642;-50.764;2022-08-19T03:47:55;5.07;;;1.60;;
65599;SDS011;52272;-29.642;-50.764;2022-08-19T03:50:26;3.33;;;1.83;;
65599;SDS011;52272;-29.642;-50.764;2022-08-19T03:52:56;3.63;;;1.70;;
65599;SDS011;52272;-29.642;-50.764;2022-08-19T03:55:28;2.38;;;1.65;;
65599;SDS011;52272;-29.642;-50.764;2022-08-19T03:57:59;1.98;;;1.20;;
65599;SDS011;52272;-29.642;-50.764;2022-08-19T04:00:30;3.08;;;1.67;;
65599;SDS011;52272;-29.642;-50.764;2022-08-19T04:03:02;3.95;;;1.90;;
65599;SDS011;52272;-29.642;-50.764;2022-08-19T04:05:33;4.78;;;1.77;;
65599;SDS011;52272;-29.642;-50.764;2022-08-19T04:08:03;3.58;;;1.85;;
65599;SDS011;52272;-29.642;-50.764;2022-08-19T04:10:40;5.45;;;1.73;;
65599;SDS011;52272;-29.642;-50.764;2022-08-19T04:13:13;4.65;;;1.60;;
65599;SDS011;52272;-29.642;-50.764;2022-08-19T04:15:47;2.67;;;1.73;;
65599;SDS011;52272;-29.642;-50.764;2022-08-19T04:18:19;3.05;;;1.35;;
65599;SDS011;52272;-29.642;-50.764;2022-08-19T04:20:50;3.15;;;1.38;;
65599;SDS011;52272;-29.642;-50.764;2022-08-19T04:23:22;4.00;;;1.80;;
65599;SDS011;52272;-29.642;-50.764;2022-08-19T04:25:53;9.10;;;1.83;;
65599;SDS011;52272;-29.642;-50.764;2022-08-19T04:28:25;1.88;;;1.35;;
65599;SDS011;52272;-29.642;-50.764;2022-08-19T04:30:55;3.30;;;1.40;;
65599;SDS011;52272;-29.642;-50.764;2022-08-19T04:33:26;2.38;;;1.30;;
65599;SDS011;52272;-29.642;-50.764;2022-08-19T04:36:00;2.03;;;1.40;;
65599;SDS011;52272;-29.642;-50.764;2022-08-19T04:38:31;5.85;;;1.58;;
65599;SDS011;52272;-29.642;-50.764;2022-08-19T04:41:02;7.03;;;2.08;;
65599;SDS011;52272;-29.642;-50.764;2022-08-19T04:43:51;6.07;;;2.03;;
65599;SDS011;52272;-29.642;-50.764;2022-08-19T04:46:21;5.13;;;1.70;;
65599;SDS011;52272;-29.642;-50.764;2022-08-19T04:49:07;4.43;;;1.90;;
65599;SDS011;52272;-29.642;-50.764;2022-08-19T04:51:41;4.13;;;1.67;;
65599;SDS011;52272;-29.642;-50.764;2022-08-19T04:54:14;2.58;;;1.50;;
65599;SDS011;52272;-29.642;-50.764;2022-08-19T04:57:08;1.23;;;1.00;;
65599;SDS011;52272;-29.642;-50.764;2022-08-19T04:59:39;4.90;;;1.20;;
65599;SDS011;52272;-29.642;-50.764;2022-08-19T05:02:10;4.00;;;1.40;;
65599;SDS011;52272;-29.642;-50.764;2022-08-19T05:04:40;8.20;;;1.77;;
65599;SDS011;52272;-29.642;-50.764;2022-08-19T05:07:11;6.70;;;1.90;;
65599;SDS011;52272;-29.642;-50.764;2022-08-19T05:09:51;2.75;;;1.08;;
65599;SDS011;52272;-29.642;-50.764;2022-08-19T05:12:27;3.97;;;1.30;;
65599;SDS011;52272;-29.642;-50.764;2022-08-19T05:14:59;3.40;;;1.55;;
65599;SDS011;52272;-29.642;-50.764;2022-08-19T05:17:31;2.92;;;1.17;;
65599;SDS011;52272;-29.642;-50.764;2022-08-19T05:20:06;1.85;;;1.00;;
65599;SDS011;52272;-29.642;-50.764;2022-08-19T05:23:17;4.78;;;1.25;;
65599;SDS011;52272;-29.642;-50.764;2022-08-19T05:25:50;7.72;;;2.92;;
65599;SDS011;52272;-29.642;-50.764;2022-08-19T05:28:21;1.75;;;0.90;;
65599;SDS011;52272;-29.642;-50.764;2022-08-19T05:30:51;2.35;;;1.45;;
65599;SDS011;52272;-29.642;-50.764;2022-08-19T05:33:24;2.80;;;1.15;;
65599;SDS011;52272;-29.642;-50.764;2022-08-19T05:35:54;2.92;;;1.25;;
65599;SDS011;52272;-29.642;-50.764;2022-08-19T05:38:25;3.80;;;1.40;;
65599;SDS011;52272;-29.642;-50.764;2022-08-19T05:40:57;2.67;;;1.40;;
65599;SDS011;52272;-29.642;-50.764;2022-08-19T05:43:28;4.32;;;1.50;;
65599;SDS011;52272;-29.642;-50.764;2022-08-19T05:45:58;1.90;;;1.30;;
65599;SDS011;52272;-29.642;-50.764;2022-08-19T05:48:29;1.60;;;0.77;;
65599;SDS011;52272;-29.642;-50.764;2022-08-19T05:51:04;3.17;;;1.33;;
65599;SDS011;52272;-29.642;-50.764;2022-08-19T05:53:35;2.45;;;1.13;;
65599;SDS011;52272;-29.642;-50.764;2022-08-19T05:56:07;2.05;;;1.20;;
65599;SDS011;52272;-29.642;-50.764;2022-08-19T05:58:40;1.88;;;0.85;;
65599;SDS011;52272;-29.642;-50.764;2022-08-19T06:01:15;1.75;;;0.95;;
65599;SDS011;52272;-29.642;-50.764;2022-08-19T06:03:47;1.50;;;1.23;;
65599;SDS011;52272;-29.642;-50.764;2022-08-19T06:06:18;1.80;;;1.15;;
65599;SDS011;52272;-29.642;-50.764;2022-08-19T06:08:49;1.83;;;1.20;;
65599;SDS011;52272;-29.642;-50.764;2022-08-19T06:11:20;2.28;;;1.10;;
65599;SDS011;52272;-29.642;-50.764;2022-08-19T06:14:09;3.47;;;1.10;;
65599;SDS011;52272;-29.642;-50.764;2022-08-19T06:16:45;1.65;;;1.20;;
65599;SDS011;52272;-29.642;-50.764;2022-08-19T06:21:46;1.65;;;1.20;;
65599;SDS011;52272;-29.642;-50.764;2022-08-19T06:24:21;2.92;;;1.15;;
65599;SDS011;52272;-29.642;-50.764;2022-08-19T06:26:54;1.67;;;0.90;;
65599;SDS011;52272;-29.642;-50.764;2022-08-19T06:29:29;1.33;;;1.00;;
65599;SDS011;52272;-29.642;-50.764;2022-08-19T06:32:00;2.03;;;0.95;;
65599;SDS011;52272;-29.642;-50.764;2022-08-19T06:34:33;0.90;;;0.80;;
65599;SDS011;52272;-29.642;-50.764;2022-08-19T06:37:04;2.90;;;1.08;;
65599;SDS011;52272;-29.642;-50.764;2022-08-19T06:39:36;2.92;;;1.10;;
65599;SDS011;52272;-29.642;-50.764;2022-08-19T06:42:07;1.42;;;1.33;;
65599;SDS011;52272;-29.642;-50.764;2022-08-19T06:44:42;1.45;;;1.10;;
65599;SDS011;52272;-29.642;-50.764;2022-08-19T06:47:17;1.10;;;1.00;;
65599;SDS011;52272;-29.642;-50.764;2022-08-19T06:49:56;2.78;;;1.17;;
65599;SDS011;52272;-29.642;-50.764;2022-08-19T06:52:33;2.75;;;1.23;;
65599;SDS011;52272;-29.642;-50.764;2022-08-19T06:55:06;1.00;;;1.00;;
65599;SDS011;52272;-29.642;-50.764;2022-08-19T07:00:06;1.50;;;1.00;;
65599;SDS011;52272;-29.642;-50.764;2022-08-19T07:02:41;1.75;;;0.98;;
65599;SDS011;52272;-29.642;-50.764;2022-08-19T07:05:24;4.70;;;0.88;;
65599;SDS011;52272;-29.642;-50.764;2022-08-19T07:07:54;1.55;;;0.75;;
65599;SDS011;52272;-29.642;-50.764;2022-08-19T07:10:31;2.42;;;1.02;;
65599;SDS011;52272;-29.642;-50.764;2022-08-19T07:13:03;3.10;;;1.40;;
65599;SDS011;52272;-29.642;-50.764;2022-08-19T07:15:35;2.80;;;1.27;;
65599;SDS011;52272;-29.642;-50.764;2022-08-19T07:18:07;2.35;;;1.40;;
65599;SDS011;52272;-29.642;-50.764;2022-08-19T07:20:39;1.33;;;1.05;;
65599;SDS011;52272;-29.642;-50.764;2022-08-19T07:23:11;3.67;;;1.10;;
65599;SDS011;52272;-29.642;-50.764;2022-08-19T07:25:43;2.80;;;1.10;;
65599;SDS011;52272;-29.642;-50.764;2022-08-19T07:28:20;3.30;;;1.10;;
65599;SDS011;52272;-29.642;-50.764;2022-08-19T07:30:52;1.70;;;0.80;;
65599;SDS011;52272;-29.642;-50.764;2022-08-19T07:35:54;1.90;;;0.82;;
65599;SDS011;52272;-29.642;-50.764;2022-08-19T07:38:25;4.07;;;0.75;;
65599;SDS011;52272;-29.642;-50.764;2022-08-19T07:40:55;2.63;;;0.82;;
65599;SDS011;52272;-29.642;-50.764;2022-08-19T07:43:26;2.47;;;0.80;;
65599;SDS011;52272;-29.642;-50.764;2022-08-19T07:46:01;2.17;;;0.90;;
65599;SDS011;52272;-29.642;-50.764;2022-08-19T07:48:33;2.80;;;0.75;;
65599;SDS011;52272;-29.642;-50.764;2022-08-19T07:51:03;1.98;;;1.23;;
65599;SDS011;52272;-29.642;-50.764;2022-08-19T07:53:37;0.80;;;0.80;;
65599;SDS011;52272;-29.642;-50.764;2022-08-19T07:58:39;2.30;;;1.25;;
65599;SDS011;52272;-29.642;-50.764;2022-08-19T08:01:14;3.03;;;0.80;;
65599;SDS011;52272;-29.642;-50.764;2022-08-19T08:03:47;2.72;;;0.90;;
65599;SDS011;52272;-29.642;-50.764;2022-08-19T08:06:37;0.52;;;0.52;;
65599;SDS011;52272;-29.642;-50.764;2022-08-19T08:09:28;4.45;;;0.93;;
65599;SDS011;52272;-29.642;-50.764;2022-08-19T08:12:03;2.05;;;0.70;;
65599;SDS011;52272;-29.642;-50.764;2022-08-19T08:14:57;3.63;;;0.98;;
65599;SDS011;52272;-29.642;-50.764;2022-08-19T08:17:35;0.98;;;0.77;;
65599;SDS011;52272;-29.642;-50.764;2022-08-19T08:20:18;1.02;;;0.85;;
65599;SDS011;52272;-29.642;-50.764;2022-08-19T08:22:49;3.33;;;0.82;;
65599;SDS011;52272;-29.642;-50.764;2022-08-19T08:25:38;2.38;;;1.10;;
65599;SDS011;52272;-29.642;-50.764;2022-08-19T08:28:08;2.05;;;0.95;;
65599;SDS011;52272;-29.642;-50.764;2022-08-19T08:30:45;4.57;;;1.05;;
65599;SDS011;52272;-29.642;-50.764;2022-08-19T08:33:22;1.13;;;0.77;;
65599;SDS011;52272;-29.642;-50.764;2022-08-19T08:36:04;2.70;;;1.10;;
65599;SDS011;52272;-29.642;-50.764;2022-08-19T08:38:35;1.90;;;1.08;;
65599;SDS011;52272;-29.642;-50.764;2022-08-19T08:43:58;1.45;;;0.90;;
65599;SDS011;52272;-29.642;-50.764;2022-08-19T08:46:34;2.50;;;0.77;;
65599;SDS011;52272;-29.642;-50.764;2022-08-19T08:52:05;2.13;;;1.00;;
65599;SDS011;52272;-29.642;-50.764;2022-08-19T08:54:43;1.95;;;0.73;;
65599;SDS011;52272;-29.642;-50.764;2022-08-19T08:57:35;2.25;;;1.10;;
65599;SDS011;52272;-29.642;-50.764;2022-08-19T09:00:25;3.28;;;1.17;;
65599;SDS011;52272;-29.642;-50.764;2022-08-19T09:03:02;1.67;;;0.65;;
65599;SDS011;52272;-29.642;-50.764;2022-08-19T09:05:38;1.55;;;0.90;;
65599;SDS011;52272;-29.642;-50.764;2022-08-19T09:08:30;0.95;;;0.90;;
65599;SDS011;52272;-29.642;-50.764;2022-08-19T09:11:10;2.30;;;1.08;;
65599;SDS011;52272;-29.642;-50.764;2022-08-19T09:14:20;3.80;;;1.08;;
65599;SDS011;52272;-29.642;-50.764;2022-08-19T09:17:22;1.25;;;0.85;;
65599;SDS011;52272;-29.642;-50.764;2022-08-19T09:22:37;1.85;;;0.88;;
65599;SDS011;52272;-29.642;-50.764;2022-08-19T09:25:10;4.60;;;1.90;;
65599;SDS011;52272;-29.642;-50.764;2022-08-19T09:27:54;3.05;;;1.67;;
65599;SDS011;52272;-29.642;-50.764;2022-08-19T09:30:31;4.10;;;1.63;;
65599;SDS011;52272;-29.642;-50.764;2022-08-19T09:33:11;3.80;;;1.45;;
65599;SDS011;52272;-29.642;-50.764;2022-08-19T09:35:41;4.45;;;1.92;;
65599;SDS011;52272;-29.642;-50.764;2022-08-19T09:38:21;3.45;;;1.70;;
65599;SDS011;52272;-29.642;-50.764;2022-08-19T09:40:51;2.85;;;1.77;;
65599;SDS011;52272;-29.642;-50.764;2022-08-19T09:43:22;3.38;;;2.00;;
65599;SDS011;52272;-29.642;-50.764;2022-08-19T09:46:01;4.68;;;2.25;;
65599;SDS011;52272;-29.642;-50.764;2022-08-19T09:48:33;5.40;;;3.17;;
65599;SDS011;52272;-29.642;-50.764;2022-08-19T09:51:07;3.95;;;2.30;;
65599;SDS011;52272;-29.642;-50.764;2022-08-19T09:53:48;5.55;;;2.85;;
65599;SDS011;52272;-29.642;-50.764;2022-08-19T09:56:21;5.15;;;2.85;;
65599;SDS011;52272;-29.642;-50.764;2022-08-19T09:58:51;8.05;;;3.40;;
65599;SDS011;52272;-29.642;-50.764;2022-08-19T10:03:54;6.95;;;3.60;;
65599;SDS011;52272;-29.642;-50.764;2022-08-19T10:06:27;8.73;;;4.22;;
65599;SDS011;52272;-29.642;-50.764;2022-08-19T10:09:14;8.15;;;4.78;;
65599;SDS011;52272;-29.642;-50.764;2022-08-19T10:12:02;5.18;;;3.00;;
65599;SDS011;52272;-29.642;-50.764;2022-08-19T10:14:38;4.22;;;2.78;;
65599;SDS011;52272;-29.642;-50.764;2022-08-19T10:17:08;3.55;;;1.95;;
65599;SDS011;52272;-29.642;-50.764;2022-08-19T10:19:48;3.35;;;2.00;;
65599;SDS011;52272;-29.642;-50.764;2022-08-19T10:22:25;2.65;;;1.90;;
65599;SDS011;52272;-29.642;-50.764;2022-08-19T10:24:58;5.00;;;2.50;;
65599;SDS011;52272;-29.642;-50.764;2022-08-19T10:27:28;6.47;;;2.33;;
65599;SDS011;52272;-29.642;-50.764;2022-08-19T10:30:02;5.03;;;2.42;;
65599;SDS011;52272;-29.642;-50.764;2022-08-19T10:32:38;3.25;;;2.88;;
65599;SDS011;52272;-29.642;-50.764;2022-08-19T10:35:13;5.68;;;2.80;;
65599;SDS011;52272;-29.642;-50.764;2022-08-19T10:37:49;4.95;;;3.10;;
65599;SDS011;52272;-29.642;-50.764;2022-08-19T10:40:27;4.90;;;2.90;;
65599;SDS011;52272;-29.642;-50.764;2022-08-19T10:42:58;7.15;;;3.00;;
65599;SDS011;52272;-29.642;-50.764;2022-08-19T10:45:28;5.57;;;3.00;;
65599;SDS011;52272;-29.642;-50.764;2022-08-19T10:48:00;5.43;;;3.22;;
65599;SDS011;52272;-29.642;-50.764;2022-08-19T10:50:30;5.22;;;3.35;;
65599;SDS011;52272;-29.642;-50.764;2022-08-19T10:53:19;4.78;;;2.78;;
65599;SDS011;52272;-29.642;-50.764;2022-08-19T10:55:54;6.07;;;2.60;;
65599;SDS011;52272;-29.642;-50.764;2022-08-19T10:58:43;6.25;;;3.55;;
65599;SDS011;52272;-29.642;-50.764;2022-08-19T11:01:13;5.90;;;3.38;;
65599;SDS011;52272;-29.642;-50.764;2022-08-19T11:03:44;9.32;;;4.78;;
65599;SDS011;52272;-29.642;-50.764;2022-08-19T11:06:14;10.88;;;5.75;;
65599;SDS011;52272;-29.642;-50.764;2022-08-19T11:11:14;11.18;;;5.55;;
65599;SDS011;52272;-29.642;-50.764;2022-08-19T11:13:45;10.85;;;5.70;;
65599;SDS011;52272;-29.642;-50.764;2022-08-19T11:16:17;8.82;;;4.60;;
65599;SDS011;52272;-29.642;-50.764;2022-08-19T11:18:52;8.27;;;3.97;;
65599;SDS011;52272;-29.642;-50.764;2022-08-19T11:21:25;7.15;;;3.63;;
65599;SDS011;52272;-29.642;-50.764;2022-08-19T11:23:58;5.80;;;3.20;;
65599;SDS011;52272;-29.642;-50.764;2022-08-19T11:26:30;4.18;;;2.95;;
65599;SDS011;52272;-29.642;-50.764;2022-08-19T11:29:01;6.20;;;3.97;;
65599;SDS011;52272;-29.642;-50.764;2022-08-19T11:31:33;5.10;;;2.90;;
65599;SDS011;52272;-29.642;-50.764;2022-08-19T11:34:07;5.57;;;3.05;;
65599;SDS011;52272;-29.642;-50.764;2022-08-19T11:36:40;5.30;;;2.30;;
65599;SDS011;52272;-29.642;-50.764;2022-08-19T11:39:15;4.20;;;2.40;;
65599;SDS011;52272;-29.642;-50.764;2022-08-19T11:41:47;4.80;;;2.47;;
65599;SDS011;52272;-29.642;-50.764;2022-08-19T11:44:18;2.53;;;2.05;;
65599;SDS011;52272;-29.642;-50.764;2022-08-19T11:46:49;3.28;;;1.90;;
65599;SDS011;52272;-29.642;-50.764;2022-08-19T11:49:21;4.53;;;2.33;;
65599;SDS011;52272;-29.642;-50.764;2022-08-19T11:51:52;4.05;;;1.90;;
65599;SDS011;52272;-29.642;-50.764;2022-08-19T11:54:23;5.18;;;2.90;;
65599;SDS011;52272;-29.642;-50.764;2022-08-19T11:56:54;5.07;;;2.63;;
65599;SDS011;52272;-29.642;-50.764;2022-08-19T11:59:29;6.85;;;2.88;;
65599;SDS011;52272;-29.642;-50.764;2022-08-19T12:01:59;4.13;;;2.47;;
65599;SDS011;52272;-29.642;-50.764;2022-08-19T12:04:30;7.55;;;3.45;;
65599;SDS011;52272;-29.642;-50.764;2022-08-19T12:07:00;6.93;;;2.40;;
65599;SDS011;52272;-29.642;-50.764;2022-08-19T12:09:31;5.43;;;2.30;;
65599;SDS011;52272;-29.642;-50.764;2022-08-19T12:12:09;6.05;;;2.15;;
65599;SDS011;52272;-29.642;-50.764;2022-08-19T12:14:41;3.28;;;1.75;;
65599;SDS011;52272;-29.642;-50.764;2022-08-19T12:17:12;5.95;;;2.25;;
65599;SDS011;52272;-29.642;-50.764;2022-08-19T12:19:45;6.18;;;2.50;;
65599;SDS011;52272;-29.642;-50.764;2022-08-19T12:22:15;7.45;;;3.10;;
65599;SDS011;52272;-29.642;-50.764;2022-08-19T12:24:46;3.65;;;2.30;;
65599;SDS011;52272;-29.642;-50.764;2022-08-19T12:27:19;6.45;;;2.75;;
65599;SDS011;52272;-29.642;-50.764;2022-08-19T12:30:08;5.05;;;2.03;;
65599;SDS011;52272;-29.642;-50.764;2022-08-19T12:32:44;10.10;;;1.90;;
65599;SDS011;52272;-29.642;-50.764;2022-08-19T12:35:15;4.35;;;2.17;;
65599;SDS011;52272;-29.642;-50.764;2022-08-19T12:37:46;5.45;;;2.30;;
65599;SDS011;52272;-29.642;-50.764;2022-08-19T12:40:24;5.35;;;1.70;;
65599;SDS011;52272;-29.642;-50.764;2022-08-19T12:42:55;5.00;;;1.70;;
65599;SDS011;52272;-29.642;-50.764;2022-08-19T12:45:26;4.72;;;1.38;;
65599;SDS011;52272;-29.642;-50.764;2022-08-19T12:47:57;6.03;;;1.52;;
65599;SDS011;52272;-29.642;-50.764;2022-08-19T12:53:17;5.20;;;1.48;;
65599;SDS011;52272;-29.642;-50.764;2022-08-19T12:55:57;5.00;;;1.38;;
65599;SDS011;52272;-29.642;-50.764;2022-08-19T12:58:29;3.78;;;1.65;;
65599;SDS011;52272;-29.642;-50.764;2022-08-19T13:01:11;3.97;;;1.50;;
65599;SDS011;52272;-29.642;-50.764;2022-08-19T13:03:52;3.15;;;1.25;;
65599;SDS011;52272;-29.642;-50.764;2022-08-19T13:06:23;3.72;;;1.25;;
65599;SDS011;52272;-29.642;-50.764;2022-08-19T13:08:54;3.25;;;1.50;;
65599;SDS011;52272;-29.642;-50.764;2022-08-19T13:11:27;5.85;;;1.30;;
65599;SDS011;52272;-29.642;-50.764;2022-08-19T13:14:03;2.67;;;1.30;;
65599;SDS011;52272;-29.642;-50.764;2022-08-19T13:16:38;7.82;;;1.70;;
65599;SDS011;52272;-29.642;-50.764;2022-08-19T13:19:12;5.00;;;1.40;;
65599;SDS011;52272;-29.642;-50.764;2022-08-19T13:21:54;4.40;;;1.52;;
65599;SDS011;52272;-29.642;-50.764;2022-08-19T13:24:29;2.85;;;1.50;;
65599;SDS011;52272;-29.642;-50.764;2022-08-19T13:27:04;2.90;;;1.15;;
65599;SDS011;52272;-29.642;-50.764;2022-08-19T13:29:39;3.45;;;1.45;;
65599;SDS011;52272;-29.642;-50.764;2022-08-19T13:32:29;4.10;;;1.50;;
65599;SDS011;52272;-29.642;-50.764;2022-08-19T13:35:21;4.47;;;2.03;;
65599;SDS011;52272;-29.642;-50.764;2022-08-19T13:37:52;7.53;;;1.92;;
65599;SDS011;52272;-29.642;-50.764;2022-08-19T13:40:25;3.80;;;1.10;;
65599;SDS011;52272;-29.642;-50.764;2022-08-19T13:43:05;2.35;;;1.10;;
65599;SDS011;52272;-29.642;-50.764;2022-08-19T13:45:52;3.28;;;1.40;;
65599;SDS011;52272;-29.642;-50.764;2022-08-19T13:48:28;2.47;;;1.30;;
65599;SDS011;52272;-29.642;-50.764;2022-08-19T13:51:00;4.35;;;1.42;;
65599;SDS011;52272;-29.642;-50.764;2022-08-19T13:53:38;5.43;;;1.50;;
65599;SDS011;52272;-29.642;-50.764;2022-08-19T13:56:17;6.18;;;1.80;;
65599;SDS011;52272;-29.642;-50.764;2022-08-19T13:58:54;3.60;;;1.40;;
65599;SDS011;52272;-29.642;-50.764;2022-08-19T14:01:27;4.03;;;1.50;;
65599;SDS011;52272;-29.642;-50.764;2022-08-19T14:04:04;3.42;;;1.48;;
65599;SDS011;52272;-29.642;-50.764;2022-08-19T14:06:37;3.90;;;1.55;;
65599;SDS011;52272;-29.642;-50.764;2022-08-19T14:09:09;3.25;;;1.33;;
65599;SDS011;52272;-29.642;-50.764;2022-08-19T14:11:39;6.53;;;1.70;;
65599;SDS011;52272;-29.642;-50.764;2022-08-19T14:14:09;2.30;;;1.38;;
65599;SDS011;52272;-29.642;-50.764;2022-08-19T14:16:43;5.50;;;1.73;;
65599;SDS011;52272;-29.642;-50.764;2022-08-19T14:19:14;4.25;;;1.48;;
65599;SDS011;52272;-29.642;-50.764;2022-08-19T14:21:44;4.32;;;1.40;;
65599;SDS011;52272;-29.642;-50.764;2022-08-19T14:24:15;4.97;;;1.40;;
65599;SDS011;52272;-29.642;-50.764;2022-08-19T14:26:45;4.30;;;1.70;;
65599;SDS011;52272;-29.642;-50.764;2022-08-19T14:29:16;6.82;;;1.67;;
65599;SDS011;52272;-29.642;-50.764;2022-08-19T14:31:46;3.13;;;1.40;;
65599;SDS011;52272;-29.642;-50.764;2022-08-19T14:34:17;3.15;;;1.20;;
65599;SDS011;52272;-29.642;-50.764;2022-08-19T14:36:48;3.50;;;1.40;;
65599;SDS011;52272;-29.642;-50.764;2022-08-19T14:39:18;4.63;;;1.67;;
65599;SDS011;52272;-29.642;-50.764;2022-08-19T14:41:49;4.20;;;1.17;;
65599;SDS011;52272;-29.642;-50.764;2022-08-19T14:44:23;2.80;;;1.15;;
65599;SDS011;52272;-29.642;-50.764;2022-08-19T14:46:56;3.50;;;1.23;;
65599;SDS011;52272;-29.642;-50.764;2022-08-19T14:49:30;3.60;;;1.60;;
65599;SDS011;52272;-29.642;-50.764;2022-08-19T14:52:17;4.07;;;1.45;;
65599;SDS011;52272;-29.642;-50.764;2022-08-19T14:54:50;2.63;;;1.08;;
65599;SDS011;52272;-29.642;-50.764;2022-08-19T14:57:29;2.92;;;1.20;;
65599;SDS011;52272;-29.642;-50.764;2022-08-19T15:00:08;4.15;;;1.88;;
65599;SDS011;52272;-29.642;-50.764;2022-08-19T15:02:55;5.10;;;1.25;;
65599;SDS011;52272;-29.642;-50.764;2022-08-19T15:05:34;4.55;;;0.95;;
65599;SDS011;52272;-29.642;-50.764;2022-08-19T15:08:05;5.22;;;1.77;;
65599;SDS011;52272;-29.642;-50.764;2022-08-19T15:10:37;3.47;;;1.27;;
65599;SDS011;52272;-29.642;-50.764;2022-08-19T15:13:09;2.90;;;1.33;;
65599;SDS011;52272;-29.642;-50.764;2022-08-19T15:15:39;4.40;;;1.50;;
65599;SDS011;52272;-29.642;-50.764;2022-08-19T15:18:10;3.00;;;1.08;;
65599;SDS011;52272;-29.642;-50.764;2022-08-19T15:20:41;2.65;;;1.20;;
65599;SDS011;52272;-29.642;-50.764;2022-08-19T15:23:14;2.67;;;1.15;;
65599;SDS011;52272;-29.642;-50.764;2022-08-19T15:25:46;2.05;;;1.10;;
65599;SDS011;52272;-29.642;-50.764;2022-08-19T15:28:18;2.65;;;1.05;;